Time;durP1;ratioP1;P1;durP2;ratioP2;P2;SDS_P1;SDS_P2;PMS_P1;PMS_P2;Temp;Humidity;BMP_temperature;BMP_pressure;BME280_temperature;BME280_humidity;BME280_pressure;Samples;Min_cycle;Max_cycle;Signal;HPM_P1;HPM_P2
2022/01/14 00:02:17;;;;;;;23.40;10.18;;;;;;;;;;5004952;28;20093;-79
2022/01/14 00:04:47;;;;;;;19.13;10.40;;;;;;;;;;5006662;28;20065;-78
2022/01/14 00:07:13;;;;;;;21.98;9.80;;;;;;;;;;4989095;28;20393;-78
2022/01/14 00:09:39;;;;;;;22.08;9.32;;;;;;;;;;4987342;28;20050;-78
2022/01/14 00:12:14;;;;;;;22.38;9.82;;;;;;;;;;4989152;28;20038;-78
2022/01/14 00:14:56;;;;;;;23.13;10.32;;;;;;;;;;4990479;28;20528;-78
2022/01/14 00:17:22;;;;;;;22.98;10.60;;;;;;;;;;5005138;28;20097;-78
2022/01/14 00:19:48;;;;;;;20.05;10.40;;;;;;;;;;4987378;28;20085;-78
2022/01/14 00:22:16;;;;;;;20.60;10.55;;;;;;;;;;4990438;28;20070;-78
2022/01/14 00:35:27;;;;;;;21.10;10.15;;;;;;;;;;4996155;28;20058;-78
2022/01/14 00:37:53;;;;;;;19.83;10.02;;;;;;;;;;4991308;28;20402;-78
2022/01/14 00:40:19;;;;;;;28.63;9.82;;;;;;;;;;5011136;28;20100;-78
2022/01/14 00:42:46;;;;;;;23.65;9.77;;;;;;;;;;4993490;28;20038;-77
2022/01/14 00:45:12;;;;;;;18.85;9.75;;;;;;;;;;4990165;28;20073;-78
2022/01/14 00:47:40;;;;;;;19.60;9.73;;;;;;;;;;4988110;28;20078;-78
2022/01/14 00:50:07;;;;;;;23.48;10.43;;;;;;;;;;5008569;28;20049;-78
2022/01/14 00:52:33;;;;;;;22.75;10.30;;;;;;;;;;5003428;28;20101;-78
2022/01/14 00:54:59;;;;;;;23.15;9.75;;;;;;;;;;4983491;28;20068;-78
2022/01/14 01:00:10;;;;;;;24.10;9.23;;;;;;;;;;4990408;28;20058;-78
2022/01/14 01:02:36;;;;;;;17.42;9.50;;;;;;;;;;5004841;28;20090;-78
2022/01/14 01:05:03;;;;;;;21.88;9.80;;;;;;;;;;5008490;28;20045;-78
2022/01/14 01:07:29;;;;;;;20.85;10.02;;;;;;;;;;4990040;28;20441;-78
2022/01/14 01:09:55;;;;;;;18.13;9.80;;;;;;;;;;5006295;28;20576;-78
2022/01/14 01:15:05;;;;;;;17.85;9.63;;;;;;;;;;4989170;28;20058;-77
2022/01/14 01:17:31;;;;;;;22.88;10.18;;;;;;;;;;5007604;28;20494;-78
2022/01/14 01:19:57;;;;;;;19.77;10.90;;;;;;;;;;5012454;28;20046;-78
2022/01/14 01:22:23;;;;;;;24.40;10.70;;;;;;;;;;4985862;28;20418;-78
2022/01/14 01:24:49;;;;;;;19.13;9.60;;;;;;;;;;4987360;28;20054;-78
2022/01/14 01:27:17;;;;;;;22.10;9.88;;;;;;;;;;4985470;28;20060;-77
2022/01/14 01:29:50;;;;;;;21.67;9.85;;;;;;;;;;4987923;28;20045;-78
2022/01/14 01:32:18;;;;;;;19.20;9.60;;;;;;;;;;4989517;28;20070;-78
2022/01/14 01:34:45;;;;;;;21.35;10.15;;;;;;;;;;4987390;28;20053;-78
2022/01/14 01:37:11;;;;;;;22.52;9.57;;;;;;;;;;4987462;28;20081;-78
2022/01/14 01:39:37;;;;;;;17.38;9.73;;;;;;;;;;4984658;28;20039;-78
2022/01/14 01:42:05;;;;;;;21.50;9.93;;;;;;;;;;4985417;28;20050;-78
2022/01/14 01:44:32;;;;;;;18.38;10.25;;;;;;;;;;4987781;28;20477;-78
2022/01/14 01:46:58;;;;;;;28.40;10.80;;;;;;;;;;4991918;28;20054;-78
2022/01/14 01:49:26;;;;;;;20.33;11.45;;;;;;;;;;4992018;28;20042;-78
2022/01/14 01:51:52;;;;;;;20.42;10.30;;;;;;;;;;4988148;28;20081;-78
2022/01/14 01:54:19;;;;;;;17.95;10.70;;;;;;;;;;4990190;28;20057;-78
2022/01/14 01:56:46;;;;;;;19.25;11.10;;;;;;;;;;4990360;28;20520;-78
2022/01/14 01:59:12;;;;;;;21.20;10.70;;;;;;;;;;4988799;28;20430;-78
2022/01/14 02:01:39;;;;;;;20.67;10.90;;;;;;;;;;4985658;28;20130;-78
2022/01/14 02:04:05;;;;;;;23.63;10.98;;;;;;;;;;4984717;28;20046;-78
2022/01/14 02:06:32;;;;;;;23.70;10.90;;;;;;;;;;4990181;28;20141;-78
2022/01/14 02:08:58;;;;;;;22.38;10.90;;;;;;;;;;4988136;28;20112;-78
2022/01/14 02:11:24;;;;;;;26.30;11.15;;;;;;;;;;4989788;28;20047;-78
2022/01/14 02:13:51;;;;;;;20.90;11.13;;;;;;;;;;4988831;28;20096;-78
2022/01/14 02:16:30;;;;;;;21.75;11.48;;;;;;;;;;4982691;28;20046;-78
2022/01/14 02:24:56;;;;;;;23.83;11.52;;;;;;;;;;4985405;28;21470;-78
2022/01/14 02:27:20;;;;;;;22.35;11.88;;;;;;;;;;4979315;28;20406;-78
2022/01/14 02:29:46;;;;;;;19.63;11.60;;;;;;;;;;4982585;28;20461;-78
2022/01/14 02:32:12;;;;;;;21.77;12.00;;;;;;;;;;4983254;28;20051;-78
2022/01/14 02:34:39;;;;;;;20.63;11.60;;;;;;;;;;4986679;28;20054;-78
2022/01/14 02:37:05;;;;;;;25.05;11.82;;;;;;;;;;4989653;28;20038;-78
2022/01/14 02:39:32;;;;;;;19.52;11.63;;;;;;;;;;4985404;28;20510;-78
2022/01/14 02:41:58;;;;;;;24.40;12.15;;;;;;;;;;4987832;28;20140;-77
2022/01/14 02:44:26;;;;;;;19.33;10.80;;;;;;;;;;4985160;28;20059;-78
2022/01/14 02:46:55;;;;;;;17.63;10.85;;;;;;;;;;4984730;28;20046;-77
2022/01/14 02:49:23;;;;;;;23.55;11.23;;;;;;;;;;4985099;28;20433;-77
2022/01/14 02:51:49;;;;;;;22.00;11.45;;;;;;;;;;4987892;28;20514;-78
2022/01/14 02:54:20;;;;;;;17.88;11.07;;;;;;;;;;4988644;28;20109;-77
2022/01/14 02:56:48;;;;;;;17.38;11.70;;;;;;;;;;4987988;28;20054;-78
2022/01/14 02:59:16;;;;;;;15.25;10.27;;;;;;;;;;4985919;28;20710;-78
2022/01/14 03:01:43;;;;;;;17.33;10.48;;;;;;;;;;4985036;28;20038;-78
2022/01/14 03:04:09;;;;;;;18.88;10.93;;;;;;;;;;4985907;28;20474;-78
2022/01/14 03:06:35;;;;;;;17.33;11.05;;;;;;;;;;4984346;28;20054;-78
2022/01/14 03:09:01;;;;;;;18.63;10.35;;;;;;;;;;4981330;28;20050;-78
2022/01/14 03:11:33;;;;;;;17.48;10.35;;;;;;;;;;4985655;28;20065;-77
2022/01/14 03:14:00;;;;;;;22.60;11.23;;;;;;;;;;4988860;28;20478;-78
2022/01/14 03:16:26;;;;;;;20.27;11.13;;;;;;;;;;4986923;28;20439;-78
2022/01/14 03:18:55;;;;;;;17.52;10.38;;;;;;;;;;4990305;28;20042;-78
2022/01/14 03:21:29;;;;;;;13.52;8.75;;;;;;;;;;4987389;28;20077;-78
2022/01/14 03:24:05;;;;;;;14.80;9.93;;;;;;;;;;4983096;28;20137;-77
2022/01/14 03:26:31;;;;;;;14.38;9.82;;;;;;;;;;4987363;28;20065;-78
2022/01/14 03:28:57;;;;;;;16.20;9.68;;;;;;;;;;4984874;28;20042;-78
2022/01/14 03:31:23;;;;;;;14.40;9.27;;;;;;;;;;4985135;28;20077;-78
2022/01/14 03:33:49;;;;;;;15.23;8.65;;;;;;;;;;4984548;28;20101;-77
2022/01/14 03:36:15;;;;;;;22.60;9.77;;;;;;;;;;4984613;28;20351;-78
2022/01/14 03:38:41;;;;;;;17.00;9.23;;;;;;;;;;4977827;28;20070;-77
2022/01/14 03:41:07;;;;;;;23.02;10.07;;;;;;;;;;4984093;28;20120;-78
2022/01/14 03:43:35;;;;;;;18.45;10.35;;;;;;;;;;4982910;28;20082;-78
2022/01/14 03:46:01;;;;;;;16.25;10.57;;;;;;;;;;4988737;28;20065;-78
2022/01/14 03:48:27;;;;;;;18.33;9.50;;;;;;;;;;4985417;28;20043;-78
2022/01/14 03:50:53;;;;;;;16.17;9.18;;;;;;;;;;4984927;28;20545;-78
2022/01/14 03:53:20;;;;;;;19.83;9.50;;;;;;;;;;4989503;28;20057;-78
2022/01/14 03:55:46;;;;;;;15.50;9.18;;;;;;;;;;4986190;28;20383;-78
2022/01/14 03:58:12;;;;;;;14.15;9.43;;;;;;;;;;4985913;28;20055;-78
2022/01/14 04:00:38;;;;;;;16.73;9.30;;;;;;;;;;4992249;28;20069;-78
2022/01/14 04:03:05;;;;;;;15.68;9.32;;;;;;;;;;4990958;28;20057;-79
2022/01/14 04:05:35;;;;;;;15.60;9.60;;;;;;;;;;4992119;28;20049;-78
2022/01/14 04:08:01;;;;;;;21.08;10.65;;;;;;;;;;4990634;28;20046;-79
2022/01/14 04:10:27;;;;;;;17.05;9.77;;;;;;;;;;4992924;28;20054;-78
2022/01/14 04:13:04;;;;;;;16.05;9.38;;;;;;;;;;4991696;28;20046;-78
2022/01/14 04:15:37;;;;;;;17.75;9.63;;;;;;;;;;4984561;28;20394;-78
2022/01/14 04:18:07;;;;;;;18.52;10.52;;;;;;;;;;4988230;28;20093;-78
2022/01/14 04:20:34;;;;;;;18.55;10.48;;;;;;;;;;4990269;28;20081;-78
2022/01/14 04:23:00;;;;;;;18.38;9.65;;;;;;;;;;5000501;28;20057;-78
2022/01/14 04:25:27;;;;;;;17.65;10.13;;;;;;;;;;4994222;28;20486;-78
2022/01/14 04:27:53;;;;;;;17.83;10.25;;;;;;;;;;4995520;28;20042;-78
2022/01/14 04:30:20;;;;;;;14.75;9.43;;;;;;;;;;4991863;28;20050;-78
2022/01/14 04:32:46;;;;;;;18.67;9.55;;;;;;;;;;5011586;28;20092;-78
2022/01/14 04:35:12;;;;;;;17.88;10.52;;;;;;;;;;4992266;28;20038;-78
2022/01/14 04:37:39;;;;;;;14.80;9.60;;;;;;;;;;4994769;28;20061;-78
2022/01/14 04:40:05;;;;;;;14.55;9.45;;;;;;;;;;4991264;28;20042;-78
2022/01/14 04:42:31;;;;;;;19.75;10.23;;;;;;;;;;5005746;28;20147;-78
2022/01/14 04:44:58;;;;;;;22.25;10.25;;;;;;;;;;4994407;28;20045;-78
2022/01/14 04:47:57;;;;;;;18.80;10.23;;;;;;;;;;4993732;28;20160;-78
2022/01/14 04:50:17;;;;;;;19.08;10.23;;;;;;;;;;4985240;28;20053;-79
2022/01/14 04:52:45;;;;;;;17.85;10.27;;;;;;;;;;5008491;28;20033;-78
2022/01/14 04:55:16;;;;;;;18.88;10.18;;;;;;;;;;4991020;28;20054;-78
2022/01/14 04:57:42;;;;;;;19.13;10.73;;;;;;;;;;4992265;28;20052;-78
2022/01/14 05:00:10;;;;;;;17.10;9.85;;;;;;;;;;4992806;28;21068;-78
2022/01/14 05:02:37;;;;;;;16.70;9.65;;;;;;;;;;4992403;28;20060;-78
2022/01/14 05:05:04;;;;;;;15.57;9.65;;;;;;;;;;4990693;28;20034;-78
2022/01/14 05:07:30;;;;;;;19.65;9.48;;;;;;;;;;4992653;28;20046;-78
2022/01/14 05:12:31;;;;;;;20.33;9.75;;;;;;;;;;4994748;28;20129;-78
2022/01/14 05:14:57;;;;;;;20.33;10.25;;;;;;;;;;4993369;28;20129;-78
2022/01/14 05:17:23;;;;;;;17.73;10.55;;;;;;;;;;4992083;28;20481;-78
2022/01/14 05:19:49;;;;;;;19.75;10.18;;;;;;;;;;4989453;28;20435;-78
2022/01/14 05:22:15;;;;;;;17.20;10.07;;;;;;;;;;4989347;28;20046;-78
2022/01/14 05:24:41;;;;;;;16.63;9.55;;;;;;;;;;4989436;28;20505;-79
2022/01/14 05:27:07;;;;;;;15.27;8.85;;;;;;;;;;4994253;28;20501;-78
2022/01/14 05:29:33;;;;;;;15.95;9.73;;;;;;;;;;4989765;28;20057;-78
2022/01/14 05:32:04;;;;;;;19.00;9.93;;;;;;;;;;4991161;28;20042;-78
2022/01/14 05:34:31;;;;;;;17.00;9.20;;;;;;;;;;4985150;28;20048;-79
2022/01/14 05:36:57;;;;;;;15.20;8.73;;;;;;;;;;5010512;28;20041;-79
2022/01/14 05:39:23;;;;;;;18.00;9.23;;;;;;;;;;4992884;28;20053;-78
2022/01/14 05:41:50;;;;;;;16.13;8.38;;;;;;;;;;4988925;28;20057;-78
2022/01/14 05:44:16;;;;;;;19.35;8.55;;;;;;;;;;5008050;28;20585;-78
2022/01/14 05:46:42;;;;;;;24.38;9.60;;;;;;;;;;5005139;28;20168;-78
2022/01/14 05:49:08;;;;;;;17.27;8.32;;;;;;;;;;4983813;28;20038;-78
2022/01/14 05:51:34;;;;;;;15.18;8.45;;;;;;;;;;4987657;28;20041;-78
2022/01/14 05:54:00;;;;;;;21.40;9.07;;;;;;;;;;4986081;28;20041;-78
2022/01/14 05:56:26;;;;;;;16.95;9.15;;;;;;;;;;5005299;28;20045;-79
2022/01/14 05:58:52;;;;;;;16.42;8.38;;;;;;;;;;4985071;28;20054;-78
2022/01/14 06:01:18;;;;;;;16.35;7.75;;;;;;;;;;4984495;28;20060;-78
2022/01/14 06:03:44;;;;;;;22.08;7.85;;;;;;;;;;5008341;28;20054;-78
2022/01/14 06:06:10;;;;;;;17.73;7.93;;;;;;;;;;4985342;28;20042;-78
2022/01/14 06:08:46;;;;;;;15.23;7.55;;;;;;;;;;4984749;28;20446;-78
2022/01/14 06:11:12;;;;;;;12.82;7.00;;;;;;;;;;4980859;28;20050;-78
2022/01/14 06:13:38;;;;;;;12.68;7.15;;;;;;;;;;4990894;28;20053;-78
2022/01/14 06:16:04;;;;;;;15.18;6.85;;;;;;;;;;4988518;28;20042;-78
2022/01/14 06:18:31;;;;;;;16.05;7.22;;;;;;;;;;5002413;28;20046;-78
2022/01/14 06:20:57;;;;;;;18.77;7.63;;;;;;;;;;4985930;28;20100;-78
2022/01/14 06:23:23;;;;;;;13.20;7.03;;;;;;;;;;4987350;28;20064;-77
2022/01/14 06:25:49;;;;;;;16.23;7.00;;;;;;;;;;4987477;28;20045;-78
2022/01/14 06:28:15;;;;;;;17.23;6.35;;;;;;;;;;4987705;28;20084;-78
2022/01/14 06:30:41;;;;;;;13.63;6.43;;;;;;;;;;4988847;28;20070;-78
2022/01/14 06:33:07;;;;;;;13.40;6.68;;;;;;;;;;4997461;28;20046;-78
2022/01/14 06:35:33;;;;;;;16.58;6.53;;;;;;;;;;4990207;28;20089;-78
2022/01/14 06:38:00;;;;;;;13.65;7.05;;;;;;;;;;4985990;28;20548;-78
2022/01/14 06:40:26;;;;;;;15.05;6.47;;;;;;;;;;5007635;28;20060;-78
2022/01/14 06:42:52;;;;;;;18.75;6.30;;;;;;;;;;4983505;28;20066;-78
2022/01/14 06:45:18;;;;;;;14.45;5.72;;;;;;;;;;4979231;28;20054;-78
2022/01/14 06:47:44;;;;;;;10.38;5.28;;;;;;;;;;4984277;28;20466;-78
2022/01/14 06:50:10;;;;;;;12.55;5.72;;;;;;;;;;4984826;28;20121;-77
2022/01/14 06:52:36;;;;;;;12.50;5.40;;;;;;;;;;5006473;28;20046;-78
2022/01/14 06:55:03;;;;;;;14.50;5.85;;;;;;;;;;5002724;28;20408;-78
2022/01/14 06:57:29;;;;;;;12.85;6.03;;;;;;;;;;4985139;28;20145;-78
2022/01/14 06:59:55;;;;;;;13.55;6.07;;;;;;;;;;4987434;28;20074;-78
2022/01/14 07:02:21;;;;;;;11.75;6.53;;;;;;;;;;4987896;28;20497;-77
2022/01/14 07:04:47;;;;;;;13.35;5.93;;;;;;;;;;4985141;28;20042;-78
2022/01/14 07:07:13;;;;;;;11.32;5.72;;;;;;;;;;4983737;28;20046;-77
2022/01/14 07:09:55;;;;;;;14.73;6.03;;;;;;;;;;4989917;28;20137;-78
2022/01/14 07:12:23;;;;;;;11.65;5.93;;;;;;;;;;4986459;28;20056;-78
2022/01/14 07:14:49;;;;;;;12.48;5.90;;;;;;;;;;4986487;28;20053;-77
2022/01/14 07:17:15;;;;;;;10.57;5.90;;;;;;;;;;4991240;28;20146;-78
2022/01/14 07:19:41;;;;;;;12.93;5.55;;;;;;;;;;5005213;28;20061;-78
2022/01/14 07:22:07;;;;;;;12.57;5.75;;;;;;;;;;4982180;28;20478;-78
2022/01/14 07:24:33;;;;;;;11.52;6.15;;;;;;;;;;4989576;28;20161;-78
2022/01/14 07:26:59;;;;;;;12.65;5.50;;;;;;;;;;4990363;28;20060;-78
2022/01/14 07:29:25;;;;;;;11.77;5.30;;;;;;;;;;4990190;28;20129;-78
2022/01/14 07:31:51;;;;;;;10.88;5.40;;;;;;;;;;4986317;28;20557;-78
2022/01/14 07:34:17;;;;;;;10.55;5.05;;;;;;;;;;4984802;28;20045;-78
2022/01/14 07:36:44;;;;;;;13.75;5.53;;;;;;;;;;4977181;28;20434;-79
2022/01/14 07:39:10;;;;;;;12.75;4.68;;;;;;;;;;4987712;28;20073;-78
2022/01/14 07:41:36;;;;;;;9.10;5.40;;;;;;;;;;4987451;28;20535;-79
2022/01/14 07:44:03;;;;;;;11.88;5.22;;;;;;;;;;4978799;28;20474;-78
2022/01/14 07:46:29;;;;;;;10.23;5.15;;;;;;;;;;5004761;28;20069;-78
2022/01/14 07:48:55;;;;;;;10.10;4.72;;;;;;;;;;4991218;28;20042;-79
2022/01/14 07:51:21;;;;;;;11.52;4.28;;;;;;;;;;4985604;28;20096;-79
2022/01/14 07:53:47;;;;;;;12.80;4.38;;;;;;;;;;4989027;28;20050;-79
2022/01/14 07:56:13;;;;;;;14.00;4.93;;;;;;;;;;4982389;28;20052;-79
2022/01/14 07:58:41;;;;;;;9.68;3.83;;;;;;;;;;4984981;28;20046;-79
2022/01/14 08:01:08;;;;;;;10.80;4.35;;;;;;;;;;4987047;28;20449;-79
2022/01/14 08:03:35;;;;;;;8.77;4.32;;;;;;;;;;5006251;28;20077;-79
2022/01/14 08:06:01;;;;;;;9.15;3.80;;;;;;;;;;4991210;28;20046;-78
2022/01/14 08:08:28;;;;;;;8.65;3.55;;;;;;;;;;4989237;28;20049;-79
2022/01/14 08:10:55;;;;;;;12.02;4.05;;;;;;;;;;4990045;28;20057;-79
2022/01/14 08:13:21;;;;;;;6.80;3.42;;;;;;;;;;5001863;28;20488;-79
2022/01/14 08:15:47;;;;;;;9.23;3.58;;;;;;;;;;5006011;28;20180;-79
2022/01/14 08:18:13;;;;;;;11.20;4.05;;;;;;;;;;5007816;28;20061;-79
2022/01/14 08:20:48;;;;;;;12.63;3.47;;;;;;;;;;4984546;28;20096;-79
2022/01/14 08:23:14;;;;;;;9.13;3.70;;;;;;;;;;4989042;28;20046;-79
2022/01/14 08:25:40;;;;;;;9.85;4.07;;;;;;;;;;4987901;28;20046;-79
2022/01/14 08:28:06;;;;;;;8.40;3.10;;;;;;;;;;4987460;28;20509;-79
2022/01/14 08:30:32;;;;;;;11.15;3.65;;;;;;;;;;4990982;28;20057;-79
2022/01/14 08:32:58;;;;;;;8.57;3.42;;;;;;;;;;4987931;28;20046;-79
2022/01/14 08:35:24;;;;;;;10.45;3.83;;;;;;;;;;4994829;28;20049;-79
2022/01/14 08:37:50;;;;;;;9.18;3.45;;;;;;;;;;5005716;28;20126;-79
2022/01/14 08:40:16;;;;;;;13.07;4.10;;;;;;;;;;5009595;28;20046;-80
2022/01/14 08:42:44;;;;;;;13.18;4.20;;;;;;;;;;5007577;28;20049;-79
2022/01/14 08:45:11;;;;;;;16.95;4.22;;;;;;;;;;5010206;28;20517;-79
2022/01/14 08:47:37;;;;;;;6.78;3.58;;;;;;;;;;4994582;28;20413;-79
2022/01/14 08:50:03;;;;;;;8.40;3.90;;;;;;;;;;4992781;28;20034;-79
2022/01/14 08:52:29;;;;;;;7.70;3.53;;;;;;;;;;4990644;28;20053;-79
2022/01/14 08:54:55;;;;;;;9.23;3.33;;;;;;;;;;4994180;28;20046;-79
2022/01/14 08:57:21;;;;;;;12.63;4.63;;;;;;;;;;4992929;28;20112;-79
2022/01/14 08:59:47;;;;;;;8.82;4.60;;;;;;;;;;4992985;28;20046;-79
2022/01/14 09:02:13;;;;;;;9.70;3.47;;;;;;;;;;5012360;28;20477;-79
2022/01/14 09:04:39;;;;;;;10.43;4.10;;;;;;;;;;5008166;28;20046;-79
2022/01/14 09:07:05;;;;;;;9.75;4.70;;;;;;;;;;5012012;28;20390;-79
2022/01/14 09:09:31;;;;;;;11.20;4.18;;;;;;;;;;4987772;28;20061;-79
2022/01/14 09:11:57;;;;;;;7.72;3.38;;;;;;;;;;4992750;28;20486;-80
2022/01/14 09:14:25;;;;;;;9.88;3.50;;;;;;;;;;4991227;28;20103;-79
2022/01/14 09:16:51;;;;;;;11.93;4.00;;;;;;;;;;5009713;28;20321;-79
2022/01/14 09:19:17;;;;;;;6.80;3.45;;;;;;;;;;4991449;28;20084;-79
2022/01/14 09:21:45;;;;;;;9.25;3.75;;;;;;;;;;5011180;28;20535;-79
2022/01/14 09:24:11;;;;;;;11.32;4.07;;;;;;;;;;5011626;28;20065;-80
2022/01/14 09:26:38;;;;;;;14.60;3.75;;;;;;;;;;5004867;28;20054;-80
2022/01/14 09:29:05;;;;;;;9.90;3.92;;;;;;;;;;4992342;28;20516;-79
2022/01/14 09:31:31;;;;;;;10.25;3.42;;;;;;;;;;4989467;28;20056;-80
2022/01/14 09:33:58;;;;;;;9.77;3.33;;;;;;;;;;4991272;28;20042;-80
2022/01/14 09:36:24;;;;;;;9.20;3.97;;;;;;;;;;5007485;28;20053;-79
2022/01/14 09:38:50;;;;;;;7.22;3.42;;;;;;;;;;4991308;28;20133;-79
2022/01/14 09:41:18;;;;;;;8.35;3.05;;;;;;;;;;5000570;28;20398;-80
2022/01/14 09:43:44;;;;;;;11.18;3.58;;;;;;;;;;4987126;28;20038;-79
2022/01/14 09:46:11;;;;;;;7.55;3.38;;;;;;;;;;4985460;28;20038;-79
2022/01/14 09:48:38;;;;;;;13.98;4.05;;;;;;;;;;4985709;28;20472;-80
2022/01/14 09:51:04;;;;;;;12.68;3.90;;;;;;;;;;4985058;28;20046;-80
2022/01/14 09:53:30;;;;;;;9.40;3.55;;;;;;;;;;5011191;28;20046;-79
2022/01/14 09:55:57;;;;;;;9.10;3.80;;;;;;;;;;4988613;28;20046;-80
2022/01/14 09:58:29;;;;;;;12.38;3.85;;;;;;;;;;4989794;28;20050;-79
2022/01/14 10:01:09;;;;;;;10.43;3.50;;;;;;;;;;4989050;28;20038;-80
2022/01/14 10:03:35;;;;;;;8.95;3.30;;;;;;;;;;4989347;28;20053;-79
2022/01/14 10:06:01;;;;;;;8.77;3.65;;;;;;;;;;4993923;28;20101;-80
2022/01/14 10:08:28;;;;;;;8.82;3.47;;;;;;;;;;4988781;28;20089;-80
2022/01/14 10:10:58;;;;;;;9.75;3.75;;;;;;;;;;4987612;28;20116;-80
2022/01/14 10:13:26;;;;;;;8.48;3.20;;;;;;;;;;4990112;28;20049;-79
2022/01/14 10:15:53;;;;;;;7.05;3.20;;;;;;;;;;5008426;28;20053;-79
2022/01/14 10:18:20;;;;;;;9.93;3.80;;;;;;;;;;4988355;28;20054;-79
2022/01/14 10:20:50;;;;;;;7.82;3.50;;;;;;;;;;4986923;28;20088;-79
2022/01/14 10:23:16;;;;;;;10.40;4.03;;;;;;;;;;5002493;28;20145;-79
2022/01/14 10:25:43;;;;;;;8.60;3.50;;;;;;;;;;5005155;28;20044;-79
2022/01/14 10:28:19;;;;;;;9.68;3.65;;;;;;;;;;4989503;28;20470;-79
2022/01/14 10:30:46;;;;;;;9.57;3.53;;;;;;;;;;5003093;28;20050;-78
2022/01/14 10:33:12;;;;;;;10.43;3.70;;;;;;;;;;4984247;28;20053;-79
2022/01/14 10:35:41;;;;;;;8.13;3.05;;;;;;;;;;5003706;28;20100;-79
2022/01/14 10:38:08;;;;;;;8.75;3.63;;;;;;;;;;5005199;28;20104;-79
2022/01/14 10:40:36;;;;;;;11.43;3.72;;;;;;;;;;5007479;28;20049;-79
2022/01/14 10:43:06;;;;;;;9.80;3.88;;;;;;;;;;5007748;28;20048;-79
2022/01/14 10:45:32;;;;;;;12.68;4.03;;;;;;;;;;4977024;28;20105;-78
2022/01/14 10:48:12;;;;;;;8.40;3.88;;;;;;;;;;4985351;28;20104;-79
2022/01/14 10:50:39;;;;;;;11.52;3.60;;;;;;;;;;5001682;28;20057;-79
2022/01/14 10:53:10;;;;;;;9.98;3.50;;;;;;;;;;5002271;28;20219;-79
2022/01/14 10:55:38;;;;;;;10.77;4.20;;;;;;;;;;4989050;28;20041;-79
2022/01/14 10:58:07;;;;;;;12.50;3.70;;;;;;;;;;4981575;28;20458;-79
2022/01/14 11:00:41;;;;;;;12.93;3.70;;;;;;;;;;4984068;28;20050;-80
2022/01/14 11:03:07;;;;;;;10.63;3.92;;;;;;;;;;5006517;28;20401;-79
2022/01/14 11:05:34;;;;;;;10.85;3.50;;;;;;;;;;5002762;28;20125;-79
2022/01/14 11:08:02;;;;;;;7.93;3.45;;;;;;;;;;5002328;28;20048;-79
2022/01/14 11:10:29;;;;;;;9.65;4.18;;;;;;;;;;4979874;28;20052;-79
2022/01/14 11:12:55;;;;;;;8.02;3.95;;;;;;;;;;4986699;28;20050;-79
2022/01/14 11:15:23;;;;;;;7.85;3.45;;;;;;;;;;4998948;28;20137;-79
2022/01/14 11:17:52;;;;;;;10.13;3.72;;;;;;;;;;4986974;28;20058;-80
2022/01/14 11:20:30;;;;;;;8.00;3.00;;;;;;;;;;4980562;28;20076;-79
2022/01/14 11:23:29;;;;;;;10.10;3.95;;;;;;;;;;4982976;28;20062;-80
2022/01/14 11:25:58;;;;;;;12.02;3.53;;;;;;;;;;4974623;28;20282;-80
2022/01/14 11:28:32;;;;;;;11.27;3.92;;;;;;;;;;4983943;28;20409;-81
2022/01/14 11:30:58;;;;;;;6.30;3.58;;;;;;;;;;4985028;28;20147;-80
2022/01/14 11:33:38;;;;;;;10.48;3.70;;;;;;;;;;4997030;28;20045;-80
2022/01/14 11:36:06;;;;;;;10.15;3.53;;;;;;;;;;5005517;28;20054;-80
2022/01/14 11:38:34;;;;;;;9.63;3.75;;;;;;;;;;4987031;28;20124;-80
2022/01/14 11:41:00;;;;;;;11.60;3.92;;;;;;;;;;4998447;28;20567;-80
2022/01/14 11:43:46;;;;;;;9.40;3.50;;;;;;;;;;4986439;28;20978;-80
2022/01/14 11:46:36;;;;;;;8.18;3.67;;;;;;;;;;4987685;28;20041;-81
2022/01/14 11:49:03;;;;;;;10.95;4.20;;;;;;;;;;4985755;28;20153;-81
2022/01/14 11:51:30;;;;;;;11.60;4.00;;;;;;;;;;5007841;28;20054;-81
2022/01/14 11:54:14;;;;;;;12.18;4.30;;;;;;;;;;4985200;28;20034;-81
2022/01/14 11:56:44;;;;;;;9.77;3.70;;;;;;;;;;4981217;28;20047;-81
2022/01/14 11:59:22;;;;;;;10.23;3.58;;;;;;;;;;5005276;28;20129;-81
2022/01/14 12:01:52;;;;;;;11.95;4.28;;;;;;;;;;5003747;28;20558;-81
2022/01/14 12:04:18;;;;;;;9.38;4.03;;;;;;;;;;4985664;28;20046;-81
2022/01/14 12:06:50;;;;;;;8.02;3.83;;;;;;;;;;4985461;28;20395;-82
2022/01/14 12:09:21;;;;;;;10.98;3.90;;;;;;;;;;4984362;28;20546;-82
2022/01/14 12:12:06;;;;;;;12.88;4.38;;;;;;;;;;4997812;28;20070;-82
2022/01/14 12:14:43;;;;;;;11.55;4.18;;;;;;;;;;4989626;28;20050;-82
2022/01/14 12:17:15;;;;;;;12.40;4.63;;;;;;;;;;4987533;28;20080;-82
2022/01/14 12:19:41;;;;;;;9.77;3.80;;;;;;;;;;5008016;28;20073;-82
2022/01/14 12:22:10;;;;;;;11.90;4.57;;;;;;;;;;5007085;28;20407;-82
2022/01/14 12:24:36;;;;;;;10.63;3.55;;;;;;;;;;5007451;28;20137;-82
2022/01/14 12:27:11;;;;;;;16.10;3.55;;;;;;;;;;5004633;28;20077;-81
2022/01/14 12:29:45;;;;;;;12.40;3.72;;;;;;;;;;5004484;28;20045;-82
2022/01/14 12:32:16;;;;;;;13.25;3.67;;;;;;;;;;4984951;28;20064;-80
2022/01/14 12:34:59;;;;;;;7.75;3.50;;;;;;;;;;5007201;28;20052;-80
2022/01/14 12:37:26;;;;;;;9.13;3.38;;;;;;;;;;5003357;28;20056;-79
2022/01/14 12:39:53;;;;;;;12.35;3.55;;;;;;;;;;4992237;28;20675;-79
2022/01/14 12:42:20;;;;;;;10.60;4.07;;;;;;;;;;4985709;28;20050;-80
2022/01/14 12:44:47;;;;;;;7.95;4.00;;;;;;;;;;5011474;28;20092;-79
2022/01/14 12:47:21;;;;;;;12.77;4.43;;;;;;;;;;4995915;28;20053;-80
2022/01/14 12:49:48;;;;;;;11.07;3.72;;;;;;;;;;4986377;28;20058;-79
2022/01/14 12:52:16;;;;;;;13.60;4.25;;;;;;;;;;5005128;28;20553;-80
2022/01/14 12:54:43;;;;;;;10.23;4.40;;;;;;;;;;5008136;28;20060;-80
2022/01/14 12:57:13;;;;;;;10.80;4.38;;;;;;;;;;4992818;28;20114;-79
2022/01/14 12:59:39;;;;;;;10.77;3.60;;;;;;;;;;4989828;28;20046;-80
2022/01/14 13:02:05;;;;;;;11.70;4.30;;;;;;;;;;4988536;28;20065;-80
2022/01/14 13:04:32;;;;;;;10.90;4.03;;;;;;;;;;5010418;28;20070;-80
2022/01/14 13:07:01;;;;;;;13.23;3.70;;;;;;;;;;5010644;28;20405;-79
2022/01/14 13:09:29;;;;;;;13.43;3.78;;;;;;;;;;5006067;28;20838;-80
2022/01/14 13:11:57;;;;;;;9.30;3.40;;;;;;;;;;4989627;28;20068;-79
2022/01/14 13:14:25;;;;;;;11.35;3.90;;;;;;;;;;4984224;28;20049;-80
2022/01/14 13:16:52;;;;;;;15.38;4.32;;;;;;;;;;4990771;28;20093;-80
2022/01/14 13:19:21;;;;;;;14.98;4.22;;;;;;;;;;4990840;28;20496;-80
2022/01/14 13:21:51;;;;;;;12.88;5.10;;;;;;;;;;4986009;28;20177;-72
2022/01/14 13:24:28;;;;;;;10.48;3.58;;;;;;;;;;4986104;28;20418;-83
2022/01/14 13:27:02;;;;;;;13.20;4.22;;;;;;;;;;4998882;28;20054;-77
2022/01/14 13:29:33;;;;;;;13.98;4.18;;;;;;;;;;4990082;28;20061;-77
2022/01/14 13:31:59;;;;;;;12.60;4.30;;;;;;;;;;4990723;28;20402;-77
2022/01/14 13:34:26;;;;;;;11.00;4.45;;;;;;;;;;4989718;28;20435;-77
2022/01/14 13:36:52;;;;;;;16.58;4.40;;;;;;;;;;5005814;28;20061;-77
2022/01/14 13:39:20;;;;;;;12.98;4.15;;;;;;;;;;4988985;28;20046;-77
2022/01/14 13:41:46;;;;;;;17.35;5.03;;;;;;;;;;4988928;28;20045;-77
2022/01/14 13:44:16;;;;;;;17.35;5.25;;;;;;;;;;4988805;28;20041;-77
2022/01/14 13:46:56;;;;;;;14.57;4.70;;;;;;;;;;4990849;28;20065;-77
2022/01/14 13:49:25;;;;;;;13.85;4.45;;;;;;;;;;4985950;28;20053;-77
2022/01/14 13:52:08;;;;;;;14.73;5.05;;;;;;;;;;4986960;28;20045;-77
2022/01/14 13:54:34;;;;;;;8.73;4.00;;;;;;;;;;4991257;28;20049;-77
2022/01/14 13:57:14;;;;;;;10.40;3.80;;;;;;;;;;4989902;28;20282;-78
2022/01/14 13:59:40;;;;;;;12.82;4.72;;;;;;;;;;5005816;28;20055;-77
2022/01/14 14:02:08;;;;;;;13.85;4.47;;;;;;;;;;4990396;28;20046;-78
2022/01/14 14:04:42;;;;;;;10.38;3.70;;;;;;;;;;4989673;28;20077;-79
2022/01/14 14:07:11;;;;;;;16.13;4.95;;;;;;;;;;4986140;28;20050;-78
2022/01/14 14:10:01;;;;;;;9.32;3.90;;;;;;;;;;4988395;28;20124;-78
2022/01/14 14:12:41;;;;;;;10.63;4.50;;;;;;;;;;5004579;28;20050;-78
2022/01/14 14:18:09;;;;;;;13.80;4.60;;;;;;;;;;4981872;28;20038;-77
2022/01/14 14:20:36;;;;;;;15.40;4.63;;;;;;;;;;5002598;28;20042;-78
2022/01/14 14:23:34;;;;;;;13.98;3.72;;;;;;;;;;5005355;28;20378;-78
2022/01/14 14:26:00;;;;;;;11.55;4.45;;;;;;;;;;4977995;28;20058;-79
2022/01/14 14:28:28;;;;;;;11.55;3.97;;;;;;;;;;4985940;28;20104;-78
2022/01/14 14:30:54;;;;;;;11.70;3.88;;;;;;;;;;4984209;28;20046;-78
2022/01/14 14:33:21;;;;;;;9.13;3.90;;;;;;;;;;4990637;28;20132;-78
2022/01/14 14:35:48;;;;;;;16.27;4.05;;;;;;;;;;4985104;28;20042;-78
2022/01/14 14:38:18;;;;;;;12.82;4.32;;;;;;;;;;4986357;28;20050;-84
2022/01/14 14:40:48;;;;;;;9.88;3.70;;;;;;;;;;4987900;28;20127;-79
2022/01/14 14:43:14;;;;;;;13.57;4.45;;;;;;;;;;5001294;28;20049;-79
2022/01/14 14:45:40;;;;;;;12.93;4.00;;;;;;;;;;5000903;28;20100;-79
2022/01/14 14:48:07;;;;;;;14.10;4.25;;;;;;;;;;5003952;28;20042;-78
2022/01/14 14:50:33;;;;;;;13.48;4.30;;;;;;;;;;5009540;28;20044;-78
2022/01/14 14:53:01;;;;;;;11.50;3.80;;;;;;;;;;4987352;28;20107;-79
2022/01/14 14:55:28;;;;;;;13.13;4.25;;;;;;;;;;4991830;28;20133;-79
2022/01/14 14:57:54;;;;;;;11.70;4.25;;;;;;;;;;5007120;28;20046;-79
2022/01/14 15:00:22;;;;;;;12.38;4.45;;;;;;;;;;5006425;28;20046;-79
2022/01/14 15:02:48;;;;;;;16.08;4.72;;;;;;;;;;5001785;28;20049;-79
2022/01/14 15:05:16;;;;;;;15.27;4.72;;;;;;;;;;4996742;28;20253;-79